Malabo, Equatorial Guinea
Current Conditions -  °F | °C
As of 9:00 PM on Sunday 28 Dec 2014 (Local Time) from FGSL Reporting Station
Haze Haze  
Wind Chill: 81°   Ceiling: Unl
Heat Index: 85°   Visibility: 1.8mi
Dew Point: 73°   Wind: 5mph
Humidity: 79%   Direction: 220°SW
Pressure: 29.88"   Gusts: NA
Location:  3.74°N, 8.79°E
Report Text: FGSL 282000Z 22004KT 3000 BR FEW008 27/23 Q1012 NOSIG
Loading
Personal Weather Stations






























Interactive Weather Map New forecast layout! Learn more

10-Day Weather Forecast

Advertisements
Track Severe Weather on mobile